Time;durP1;ratioP1;P1;durP2;ratioP2;P2;SDS_P1;SDS_P2;PMS_P1;PMS_P2;Temp;Humidity;BMP_temperature;BMP_pressure;BME280_temperature;BME280_humidity;BME280_pressure;Samples;Min_cycle;Max_cycle;Signal;HPM_P1;HPM_P2
2023/06/08 00:00:56;;;;;;;10.23;6.82;;;13.60;99.90;;;;;;4977548;28;20070;-83
2023/06/08 00:03:22;;;;;;;10.05;7.25;;;13.50;99.90;;;;;;4978174;28;20041;-83
2023/06/08 00:05:49;;;;;;;10.07;6.88;;;13.50;99.90;;;;;;4982690;28;20018;-83
2023/06/08 00:08:15;;;;;;;9.30;7.47;;;13.50;99.90;;;;;;4978724;28;20068;-83
2023/06/08 00:10:42;;;;;;;10.25;6.80;;;13.40;99.90;;;;;;4983001;28;20034;-83
2023/06/08 00:13:08;;;;;;;10.98;7.55;;;13.40;99.90;;;;;;4983072;28;20157;-84
2023/06/08 00:15:33;;;;;;;9.15;7.47;;;13.30;99.90;;;;;;4976696;28;20042;-84
2023/06/08 00:18:00;;;;;;;12.85;7.70;;;13.30;99.90;;;;;;4978001;28;20042;-83
2023/06/08 00:20:26;;;;;;;8.73;7.45;;;13.20;99.90;;;;;;4978236;28;20062;-84
2023/06/08 00:22:52;;;;;;;10.18;7.75;;;13.20;99.90;;;;;;4978135;28;20053;-83
2023/06/08 00:25:17;;;;;;;9.50;7.80;;;13.20;99.90;;;;;;4978149;28;21457;-83
2023/06/08 00:27:43;;;;;;;10.13;7.35;;;13.10;99.90;;;;;;4978000;28;20026;-84
2023/06/08 00:30:09;;;;;;;9.02;6.95;;;13.10;99.90;;;;;;4978622;28;20050;-83
2023/06/08 00:32:35;;;;;;;9.75;7.53;;;13.10;99.90;;;;;;4976914;28;20040;-84
2023/06/08 00:35:00;;;;;;;11.18;7.28;;;13.10;99.90;;;;;;4977838;28;20026;-83
2023/06/08 00:37:26;;;;;;;10.38;7.20;;;13.10;99.90;;;;;;4977608;28;20033;-83
2023/06/08 00:39:51;;;;;;;12.52;7.63;;;13.10;99.90;;;;;;4978268;28;20069;-83
2023/06/08 00:42:17;;;;;;;8.90;7.18;;;13.00;99.90;;;;;;4978164;28;20486;-83
2023/06/08 00:44:43;;;;;;;9.93;7.18;;;13.00;99.90;;;;;;4978048;28;20102;-83
2023/06/08 00:47:09;;;;;;;10.13;7.07;;;13.00;99.90;;;;;;4977894;28;20018;-83
2023/06/08 00:49:35;;;;;;;9.15;6.47;;;13.00;99.90;;;;;;4978093;28;21464;-83
2023/06/08 00:52:02;;;;;;;9.70;6.47;;;13.00;99.90;;;;;;4978862;28;20042;-83
2023/06/08 00:54:30;;;;;;;9.25;7.00;;;13.00;99.90;;;;;;4979127;28;20064;-84
2023/06/08 00:57:00;;;;;;;8.48;7.25;;;12.90;99.90;;;;;;4977884;28;20030;-84
2023/06/08 00:59:28;;;;;;;11.30;7.93;;;12.90;99.90;;;;;;4977257;28;20053;-84
2023/06/08 01:01:56;;;;;;;9.45;7.63;;;12.80;99.90;;;;;;4978168;28;20030;-84
2023/06/08 01:04:26;;;;;;;10.48;7.97;;;12.80;99.90;;;;;;4977448;28;20026;-83
2023/06/08 01:07:14;;;;;;;8.95;7.25;;;12.80;99.90;;;;;;4978539;28;20031;-83
2023/06/08 01:09:46;;;;;;;11.00;7.63;;;12.70;99.90;;;;;;4979798;28;20030;-83
2023/06/08 01:12:27;;;;;;;10.48;7.75;;;12.60;99.90;;;;;;4979383;28;20085;-83
2023/06/08 01:15:11;;;;;;;9.18;7.38;;;12.50;99.90;;;;;;4981688;28;20021;-84
2023/06/08 01:17:41;;;;;;;10.57;7.70;;;12.40;99.90;;;;;;4982698;28;20084;-83
2023/06/08 01:20:17;;;;;;;9.25;7.35;;;12.40;99.90;;;;;;4982267;28;20060;-84
2023/06/08 01:23:09;;;;;;;9.52;7.50;;;12.40;99.90;;;;;;4981943;28;20030;-84
2023/06/08 01:25:36;;;;;;;11.73;8.32;;;12.40;99.90;;;;;;4981527;28;20034;-83
2023/06/08 01:28:12;;;;;;;11.43;7.65;;;12.40;99.90;;;;;;4982431;28;20038;-82
2023/06/08 01:30:46;;;;;;;9.68;7.72;;;12.30;99.90;;;;;;4981483;28;20038;-83
2023/06/08 01:33:16;;;;;;;10.82;7.68;;;12.30;99.90;;;;;;4980416;28;20088;-83
2023/06/08 01:35:44;;;;;;;9.05;7.72;;;12.30;99.90;;;;;;4981899;28;20411;-83
2023/06/08 01:38:36;;;;;;;11.50;7.68;;;12.20;99.90;;;;;;4981350;28;20410;-83
2023/06/08 01:41:09;;;;;;;9.52;7.07;;;12.20;99.90;;;;;;4970690;28;20034;-83
2023/06/08 01:43:37;;;;;;;11.98;8.45;;;12.20;99.90;;;;;;4981141;28;20394;-83
2023/06/08 01:46:07;;;;;;;8.88;7.40;;;12.20;99.90;;;;;;4980487;28;20061;-84
2023/06/08 01:48:34;;;;;;;9.93;7.75;;;12.20;99.90;;;;;;4981495;28;20033;-84
2023/06/08 01:51:00;;;;;;;8.80;7.40;;;12.10;99.90;;;;;;4981246;28;20465;-84
2023/06/08 01:53:26;;;;;;;11.23;8.10;;;12.10;99.90;;;;;;4982961;28;20019;-83
2023/06/08 01:55:51;;;;;;;11.02;7.93;;;12.10;99.90;;;;;;4981305;28;20407;-84
2023/06/08 01:58:17;;;;;;;9.80;7.63;;;12.10;99.90;;;;;;4982346;28;20116;-83
2023/06/08 02:00:43;;;;;;;9.55;7.88;;;12.10;99.90;;;;;;4982087;28;20019;-83
2023/06/08 02:03:08;;;;;;;8.63;7.05;;;12.00;99.90;;;;;;4982487;28;20532;-83
2023/06/08 02:05:34;;;;;;;8.73;7.47;;;12.00;99.90;;;;;;4981700;28;20423;-83
2023/06/08 02:08:00;;;;;;;9.48;8.20;;;12.00;99.90;;;;;;4982556;28;20510;-83
2023/06/08 02:10:26;;;;;;;9.88;8.13;;;12.00;99.90;;;;;;4984750;28;20509;-84
2023/06/08 02:12:51;;;;;;;9.82;7.70;;;12.00;99.90;;;;;;4986577;28;20038;-83
2023/06/08 02:15:17;;;;;;;9.20;7.88;;;12.00;99.90;;;;;;4981681;28;20041;-83
2023/06/08 02:17:43;;;;;;;9.07;7.13;;;11.90;99.90;;;;;;4984899;28;20037;-83
2023/06/08 02:20:09;;;;;;;10.07;7.68;;;11.90;99.90;;;;;;4982150;28;21391;-84
2023/06/08 02:22:36;;;;;;;8.68;7.10;;;11.90;99.90;;;;;;4980939;28;20395;-82
2023/06/08 02:25:07;;;;;;;9.27;7.47;;;11.90;99.90;;;;;;4980981;28;20792;-83
2023/06/08 02:27:36;;;;;;;9.82;7.80;;;11.90;99.90;;;;;;4981735;28;20038;-83
2023/06/08 02:30:02;;;;;;;8.57;7.20;;;11.80;99.90;;;;;;4982683;28;20029;-82
2023/06/08 02:32:32;;;;;;;10.18;8.10;;;11.80;99.90;;;;;;4981154;28;20071;-84
2023/06/08 02:34:59;;;;;;;9.85;8.10;;;11.70;99.90;;;;;;4980824;28;20030;-83
2023/06/08 02:37:25;;;;;;;9.95;7.97;;;11.70;99.90;;;;;;4980287;28;20117;-83
2023/06/08 02:39:51;;;;;;;8.88;7.50;;;11.70;99.90;;;;;;4981606;28;20520;-83
2023/06/08 02:42:18;;;;;;;10.27;8.30;;;11.70;99.90;;;;;;4980817;28;20134;-83
2023/06/08 02:44:45;;;;;;;11.40;7.43;;;11.60;99.90;;;;;;4981127;28;20062;-83
2023/06/08 02:47:10;;;;;;;11.38;7.85;;;11.60;99.90;;;;;;4980477;28;20089;-83
2023/06/08 02:49:36;;;;;;;11.05;7.97;;;11.60;99.90;;;;;;4980683;28;20038;-83
2023/06/08 02:52:01;;;;;;;11.27;8.40;;;11.50;99.90;;;;;;4980835;28;20081;-83
2023/06/08 02:54:27;;;;;;;8.63;7.68;;;11.50;99.90;;;;;;4981613;28;20384;-83
2023/06/08 02:56:53;;;;;;;11.18;8.05;;;11.50;99.90;;;;;;4980160;28;20553;-83
2023/06/08 02:59:19;;;;;;;11.02;8.30;;;11.40;99.90;;;;;;4980251;28;20038;-83
2023/06/08 03:01:52;;;;;;;10.48;8.50;;;11.40;99.90;;;;;;4980709;28;20056;-83
2023/06/08 03:04:18;;;;;;;10.35;8.27;;;11.40;99.90;;;;;;4979916;28;20036;-83
2023/06/08 03:06:44;;;;;;;9.48;8.32;;;11.40;99.90;;;;;;4980225;28;20117;-84
2023/06/08 03:09:09;;;;;;;9.88;8.32;;;11.30;99.90;;;;;;4980674;28;20038;-83
2023/06/08 03:11:35;;;;;;;9.43;8.00;;;11.30;99.90;;;;;;4979999;28;20034;-83
2023/06/08 03:14:01;;;;;;;12.52;8.35;;;11.30;99.90;;;;;;4980561;28;20038;-83
2023/06/08 03:16:26;;;;;;;11.70;8.57;;;11.30;99.90;;;;;;4980608;28;20482;-83
2023/06/08 03:18:52;;;;;;;10.43;8.67;;;11.20;99.90;;;;;;4980254;28;20045;-83
2023/06/08 03:21:18;;;;;;;10.00;8.05;;;11.20;99.90;;;;;;4980965;28;20023;-83
2023/06/08 03:23:48;;;;;;;11.65;9.10;;;11.20;99.90;;;;;;4980984;28;20034;-83
2023/06/08 03:26:14;;;;;;;11.35;8.52;;;11.20;99.90;;;;;;4980769;28;20058;-82
2023/06/08 03:28:40;;;;;;;10.63;8.40;;;11.20;99.90;;;;;;4981540;28;20041;-82
2023/06/08 03:31:05;;;;;;;10.48;8.48;;;11.10;99.90;;;;;;4981290;28;20022;-83
2023/06/08 03:33:32;;;;;;;12.63;9.77;;;11.10;99.90;;;;;;4980213;28;20082;-83
2023/06/08 03:35:57;;;;;;;12.90;9.00;;;11.10;99.90;;;;;;4979585;28;20026;-84
2023/06/08 03:38:23;;;;;;;10.93;8.90;;;11.10;99.90;;;;;;4979910;28;20121;-82
2023/06/08 03:40:49;;;;;;;12.52;8.73;;;11.10;99.90;;;;;;4980730;28;20084;-83
2023/06/08 03:43:14;;;;;;;12.03;9.00;;;11.10;99.90;;;;;;4980307;28;20052;-84
2023/06/08 03:45:40;;;;;;;10.23;8.40;;;11.10;99.90;;;;;;4979938;28;20390;-83
2023/06/08 03:48:05;;;;;;;11.18;8.25;;;11.10;99.90;;;;;;4980782;28;20041;-83
2023/06/08 03:50:31;;;;;;;9.85;8.70;;;11.10;99.90;;;;;;4980492;28;20142;-83
2023/06/08 03:52:56;;;;;;;13.48;9.55;;;11.10;99.90;;;;;;4979220;28;20101;-84
2023/06/08 03:55:23;;;;;;;12.43;9.32;;;11.10;99.90;;;;;;4980607;28;20035;-83
2023/06/08 03:57:50;;;;;;;11.98;9.40;;;11.10;99.90;;;;;;4981810;28;20042;-82
2023/06/08 04:00:16;;;;;;;11.18;9.07;;;11.10;99.90;;;;;;4980438;28;20100;-83
2023/06/08 04:02:42;;;;;;;12.38;10.18;;;11.10;99.90;;;;;;4982311;28;20038;-84
2023/06/08 04:05:08;;;;;;;12.63;9.83;;;11.10;99.90;;;;;;4980269;28;20057;-84
2023/06/08 04:07:35;;;;;;;13.57;10.50;;;11.10;99.90;;;;;;4980767;28;20557;-81
2023/06/08 04:10:01;;;;;;;11.57;9.67;;;11.20;99.90;;;;;;4980745;28;20383;-84
2023/06/08 04:12:27;;;;;;;10.15;8.45;;;11.20;99.90;;;;;;4987994;28;20045;-83
2023/06/08 04:14:52;;;;;;;17.98;8.88;;;11.30;99.90;;;;;;4982003;28;20486;-83
2023/06/08 04:17:18;;;;;;;11.75;9.20;;;11.40;99.90;;;;;;4979700;28;20513;-83
2023/06/08 04:19:43;;;;;;;11.65;8.98;;;11.40;99.90;;;;;;4982381;28;20100;-83
2023/06/08 04:22:09;;;;;;;11.38;8.90;;;11.40;99.90;;;;;;4978723;28;20033;-82
2023/06/08 04:24:36;;;;;;;13.50;8.57;;;11.50;99.90;;;;;;4978999;28;20030;-82
2023/06/08 04:27:02;;;;;;;14.23;9.15;;;11.50;99.90;;;;;;4978929;28;20043;-83
2023/06/08 04:29:27;;;;;;;10.48;8.52;;;11.50;99.90;;;;;;4980159;28;20104;-84
2023/06/08 04:31:53;;;;;;;9.80;8.27;;;11.50;99.90;;;;;;4979285;28;20030;-83
2023/06/08 04:34:19;;;;;;;10.98;8.95;;;11.50;99.90;;;;;;4977930;28;20070;-83
2023/06/08 04:36:44;;;;;;;12.82;8.20;;;11.60;99.90;;;;;;4978026;28;20600;-83
2023/06/08 04:39:10;;;;;;;9.98;8.25;;;11.60;99.90;;;;;;4979776;28;20458;-83
2023/06/08 04:41:36;;;;;;;11.02;7.68;;;11.70;99.90;;;;;;4979807;28;20027;-83
2023/06/08 04:44:02;;;;;;;10.45;8.30;;;11.70;99.90;;;;;;4979920;28;20041;-83
2023/06/08 04:46:33;;;;;;;10.02;8.20;;;11.80;99.90;;;;;;4979733;28;20019;-82
2023/06/08 04:48:59;;;;;;;10.85;8.60;;;11.90;99.90;;;;;;4981039;28;20121;-81
2023/06/08 04:51:29;;;;;;;12.57;8.25;;;12.00;99.90;;;;;;4979818;28;20069;-83
2023/06/08 04:54:04;;;;;;;10.02;8.40;;;12.10;99.90;;;;;;4979699;28;20038;-83
2023/06/08 04:56:33;;;;;;;10.80;7.68;;;12.10;99.90;;;;;;4978577;28;20037;-83
2023/06/08 04:58:59;;;;;;;8.55;7.53;;;12.20;99.90;;;;;;4979022;28;20511;-83
2023/06/08 05:01:25;;;;;;;10.45;8.05;;;12.30;99.90;;;;;;4979079;28;20386;-84
2023/06/08 05:03:51;;;;;;;11.95;7.60;;;12.40;99.90;;;;;;4977900;28;20042;-84
2023/06/08 05:06:17;;;;;;;11.65;8.18;;;12.50;99.90;;;;;;4978943;28;20031;-84
2023/06/08 05:08:42;;;;;;;10.93;7.95;;;12.60;99.90;;;;;;4978742;28;20034;-84
2023/06/08 05:11:08;;;;;;;11.27;7.80;;;12.70;99.90;;;;;;4978410;28;20185;-84
2023/06/08 05:13:34;;;;;;;10.48;8.38;;;12.80;99.90;;;;;;4978630;28;20077;-84
2023/06/08 05:16:00;;;;;;;11.10;9.02;;;12.90;99.90;;;;;;4977238;28;21429;-84
2023/06/08 05:18:26;;;;;;;10.15;8.60;;;13.00;99.90;;;;;;4976718;28;20031;-84
2023/06/08 05:20:51;;;;;;;10.32;8.38;;;13.10;99.90;;;;;;4977104;28;20105;-77
2023/06/08 05:23:17;;;;;;;9.63;7.85;;;13.20;99.90;;;;;;4976275;28;20085;-76
2023/06/08 05:25:43;;;;;;;12.35;8.32;;;13.30;99.90;;;;;;4976643;28;20030;-77
2023/06/08 05:28:08;;;;;;;12.48;9.02;;;13.50;99.90;;;;;;4976643;28;20035;-77
2023/06/08 05:30:34;;;;;;;10.68;8.45;;;13.60;99.90;;;;;;4977846;28;20030;-77
2023/06/08 05:33:00;;;;;;;13.57;8.57;;;13.70;99.90;;;;;;4975610;28;20057;-78
2023/06/08 05:35:26;;;;;;;11.93;8.57;;;13.90;99.90;;;;;;4977442;28;20402;-79
2023/06/08 05:37:52;;;;;;;15.10;8.68;;;14.00;99.90;;;;;;4976933;28;20067;-78
2023/06/08 05:40:18;;;;;;;13.23;8.52;;;14.10;99.90;;;;;;4976548;28;20130;-77
2023/06/08 05:42:44;;;;;;;11.27;8.23;;;14.10;99.90;;;;;;4977027;28;20030;-72
2023/06/08 05:45:11;;;;;;;13.55;9.38;;;14.20;99.90;;;;;;4976495;28;20368;-78
2023/06/08 05:47:37;;;;;;;11.30;8.63;;;14.20;99.90;;;;;;4976634;28;20585;-76
2023/06/08 05:50:02;;;;;;;12.32;9.32;;;14.10;99.90;;;;;;4975907;28;20238;-79
2023/06/08 05:52:30;;;;;;;12.13;9.73;;;14.10;99.90;;;;;;4975393;28;20035;-78
2023/06/08 05:54:55;;;;;;;11.02;8.63;;;14.20;99.90;;;;;;4976136;28;20528;-79
2023/06/08 05:57:21;;;;;;;14.27;8.77;;;14.20;99.90;;;;;;4975325;28;20034;-79
2023/06/08 05:59:46;;;;;;;12.38;9.75;;;14.20;99.90;;;;;;4977864;28;20043;-78
2023/06/08 06:02:13;;;;;;;10.88;8.50;;;14.30;99.90;;;;;;4976656;28;20042;-79
2023/06/08 06:04:38;;;;;;;10.75;8.82;;;14.40;99.90;;;;;;4975723;28;20034;-79
2023/06/08 06:07:07;;;;;;;11.75;8.85;;;14.50;99.90;;;;;;4978556;28;20047;-79
2023/06/08 06:09:33;;;;;;;11.50;8.95;;;14.70;99.90;;;;;;4978188;28;21436;-80
2023/06/08 06:11:59;;;;;;;9.95;8.65;;;14.80;99.90;;;;;;4981498;28;20029;-79
2023/06/08 06:14:27;;;;;;;14.25;8.60;;;14.90;99.90;;;;;;4979987;28;20034;-79
2023/06/08 06:16:52;;;;;;;12.05;7.93;;;14.90;99.90;;;;;;4977717;28;20949;-77
2023/06/08 06:19:18;;;;;;;11.35;8.38;;;15.00;99.90;;;;;;4978639;28;20053;-77
2023/06/08 06:21:43;;;;;;;11.10;8.20;;;15.00;99.90;;;;;;4979506;28;20072;-77
2023/06/08 06:24:09;;;;;;;12.38;8.50;;;15.10;99.90;;;;;;4979093;28;20034;-77
2023/06/08 06:26:35;;;;;;;14.32;9.50;;;15.10;99.90;;;;;;4971706;28;20073;-78
2023/06/08 06:31:37;;;;;;;12.85;9.77;;;15.30;99.90;;;;;;4996836;28;20124;-76
2023/06/08 06:34:02;;;;;;;13.55;9.20;;;15.40;99.90;;;;;;4999885;28;20120;-76
2023/06/08 06:36:29;;;;;;;10.07;8.55;;;15.50;99.90;;;;;;5000981;28;20518;-77
2023/06/08 06:38:55;;;;;;;9.95;8.40;;;15.70;99.90;;;;;;4997893;28;20099;-76
2023/06/08 06:41:20;;;;;;;11.00;7.65;;;15.90;99.90;;;;;;4998289;28;20029;-76
2023/06/08 06:43:46;;;;;;;14.98;7.20;;;16.00;99.90;;;;;;4997178;28;20030;-76
2023/06/08 06:46:12;;;;;;;9.43;7.13;;;16.20;99.90;;;;;;4995118;28;20032;-75
2023/06/08 06:48:38;;;;;;;9.02;7.43;;;16.50;99.90;;;;;;4998114;28;20049;-75
2023/06/08 06:51:03;;;;;;;9.15;6.85;;;16.60;99.90;;;;;;4998772;28;20041;-75
2023/06/08 06:53:31;;;;;;;9.05;7.90;;;16.80;99.90;;;;;;4998715;28;20877;-75
2023/06/08 06:55:59;;;;;;;11.07;7.50;;;17.10;99.90;;;;;;4998373;28;20565;-75
2023/06/08 06:58:25;;;;;;;13.52;7.07;;;17.30;99.90;;;;;;4998180;28;20116;-75
2023/06/08 07:00:51;;;;;;;10.88;7.85;;;17.50;99.90;;;;;;4997737;28;20045;-75
2023/06/08 07:03:17;;;;;;;9.73;7.68;;;17.60;99.90;;;;;;4999517;28;20022;-75
2023/06/08 07:05:44;;;;;;;10.50;7.68;;;17.70;99.90;;;;;;4997031;28;20046;-76
2023/06/08 07:08:10;;;;;;;10.38;7.35;;;17.80;99.90;;;;;;4996084;28;20032;-77
2023/06/08 07:10:36;;;;;;;10.05;6.70;;;17.90;99.90;;;;;;4997586;28;20441;-76
2023/06/08 07:13:02;;;;;;;9.02;7.60;;;18.00;99.90;;;;;;4998801;28;20036;-77
2023/06/08 07:15:27;;;;;;;8.07;5.97;;;18.20;99.90;;;;;;4997534;28;20049;-77
2023/06/08 07:17:53;;;;;;;10.18;7.05;;;18.40;99.90;;;;;;4998076;28;20116;-76
2023/06/08 07:20:18;;;;;;;11.23;7.32;;;18.50;99.90;;;;;;4998118;28;20502;-75
2023/06/08 07:22:44;;;;;;;8.52;6.18;;;18.70;99.90;;;;;;4998059;28;20121;-76
2023/06/08 07:25:10;;;;;;;9.00;6.45;;;18.90;99.90;;;;;;4997396;28;20041;-76
2023/06/08 07:27:37;;;;;;;7.93;6.50;;;19.00;99.90;;;;;;4997445;28;20411;-76
2023/06/08 07:30:03;;;;;;;10.30;6.80;;;19.10;99.90;;;;;;4997267;28;20049;-76
2023/06/08 07:32:30;;;;;;;9.15;6.20;;;19.20;99.90;;;;;;4998658;28;20030;-77
2023/06/08 07:34:56;;;;;;;7.63;6.22;;;19.30;99.90;;;;;;4997491;28;20037;-75
2023/06/08 07:37:22;;;;;;;8.00;6.40;;;19.50;99.90;;;;;;4996774;28;20040;-74
2023/06/08 07:39:47;;;;;;;9.75;6.53;;;19.60;99.90;;;;;;4996885;28;20045;-75
2023/06/08 07:42:13;;;;;;;8.60;6.53;;;19.70;99.90;;;;;;4996765;28;20386;-74
2023/06/08 07:44:38;;;;;;;10.68;6.15;;;19.80;99.90;;;;;;4997202;28;20042;-78
2023/06/08 07:47:04;;;;;;;12.35;6.60;;;20.00;99.90;;;;;;4995885;28;20029;-78
2023/06/08 07:49:30;;;;;;;9.48;7.18;;;20.10;99.90;;;;;;4997279;28;20743;-78
2023/06/08 07:51:56;;;;;;;10.25;6.78;;;20.20;99.90;;;;;;4993727;28;20076;-78
2023/06/08 07:54:22;;;;;;;10.48;7.75;;;20.30;99.90;;;;;;4996121;28;20038;-76
2023/06/08 07:56:48;;;;;;;12.10;7.60;;;20.40;99.90;;;;;;4996173;28;20034;-75
2023/06/08 07:59:14;;;;;;;13.45;8.25;;;20.50;99.90;;;;;;4998729;28;20042;-75
2023/06/08 08:01:41;;;;;;;10.77;8.05;;;20.60;99.90;;;;;;4997118;28;20093;-75
2023/06/08 08:04:09;;;;;;;10.50;7.00;;;20.60;99.90;;;;;;4998180;28;20093;-75
2023/06/08 08:06:35;;;;;;;9.68;7.40;;;20.60;99.90;;;;;;4996750;28;20030;-75
2023/06/08 08:09:01;;;;;;;10.38;6.90;;;20.60;99.90;;;;;;4998151;28;20397;-76
2023/06/08 08:11:27;;;;;;;11.18;6.75;;;20.70;99.90;;;;;;4997708;28;20030;-75
2023/06/08 08:13:54;;;;;;;8.05;6.65;;;20.70;99.90;;;;;;4996279;28;20026;-76
2023/06/08 08:16:20;;;;;;;10.70;7.07;;;20.80;99.90;;;;;;4997099;28;20033;-75
2023/06/08 08:18:45;;;;;;;9.68;6.28;;;20.90;99.90;;;;;;4996450;28;20529;-75
2023/06/08 08:21:11;;;;;;;7.13;5.30;;;21.00;99.90;;;;;;4998211;28;20034;-77
2023/06/08 08:23:38;;;;;;;7.40;5.85;;;21.00;99.90;;;;;;4996886;28;20081;-76
2023/06/08 08:26:03;;;;;;;9.07;5.90;;;21.10;99.90;;;;;;4996334;28;20038;-77
2023/06/08 08:28:29;;;;;;;7.65;5.65;;;21.20;99.90;;;;;;4997014;28;20085;-76
2023/06/08 08:30:54;;;;;;;8.20;6.40;;;21.20;99.90;;;;;;4996683;28;20048;-76
2023/06/08 08:33:20;;;;;;;7.88;5.95;;;21.30;99.90;;;;;;4998128;28;20033;-73
2023/06/08 08:35:46;;;;;;;9.10;5.95;;;21.30;99.90;;;;;;4996729;28;20034;-73
2023/06/08 08:38:11;;;;;;;10.20;6.45;;;21.40;99.90;;;;;;4998120;28;20032;-81
2023/06/08 08:40:37;;;;;;;9.07;6.15;;;21.50;99.90;;;;;;4998617;28;20046;-75
2023/06/08 08:43:10;;;;;;;6.38;5.72;;;21.60;99.90;;;;;;4998756;28;20075;-76
2023/06/08 08:45:39;;;;;;;9.10;6.20;;;21.70;99.90;;;;;;4992146;28;20776;-81
2023/06/08 08:48:07;;;;;;;8.00;6.28;;;21.80;99.90;;;;;;4991112;28;20042;-81
2023/06/08 08:50:38;;;;;;;8.27;5.78;;;22.00;99.90;;;;;;4996886;28;20034;-78
2023/06/08 08:53:06;;;;;;;8.13;6.15;;;22.10;99.90;;;;;;4995444;28;20119;-78
2023/06/08 08:55:33;;;;;;;7.65;5.82;;;22.10;99.90;;;;;;4996174;28;20033;-82
2023/06/08 08:58:01;;;;;;;6.35;5.47;;;22.20;99.90;;;;;;4995716;28;20026;-80
2023/06/08 09:00:27;;;;;;;8.02;5.63;;;22.20;99.90;;;;;;4996963;28;20056;-79
2023/06/08 09:02:53;;;;;;;7.05;5.30;;;22.30;99.90;;;;;;4996260;28;20036;-81
2023/06/08 09:05:19;;;;;;;7.57;5.43;;;22.40;99.90;;;;;;4995546;28;20041;-77
2023/06/08 09:07:44;;;;;;;8.38;5.80;;;22.30;99.90;;;;;;4995553;28;20499;-80
2023/06/08 09:10:22;;;;;;;8.77;5.47;;;22.50;99.90;;;;;;4995406;28;21344;-84
2023/06/08 09:12:50;;;;;;;7.93;5.60;;;22.50;99.90;;;;;;4996963;28;20061;-78
2023/06/08 09:15:30;;;;;;;7.45;6.35;;;22.60;99.90;;;;;;4995935;28;20029;-79
2023/06/08 09:17:58;;;;;;;9.00;5.60;;;22.80;99.90;;;;;;4996201;28;20092;-83
2023/06/08 09:20:32;;;;;;;9.05;5.50;;;22.90;99.90;;;;;;4995569;28;20030;-78
2023/06/08 09:22:58;;;;;;;8.75;5.30;;;22.90;99.90;;;;;;4996248;28;20053;-77
2023/06/08 09:25:38;;;;;;;9.13;6.00;;;23.00;99.90;;;;;;4995992;28;20033;-78
2023/06/08 09:28:28;;;;;;;6.32;5.15;;;23.20;99.90;;;;;;4995930;28;20125;-80
2023/06/08 09:30:57;;;;;;;7.43;5.07;;;23.40;99.90;;;;;;4995631;28;20042;-81
2023/06/08 09:33:25;;;;;;;8.38;5.30;;;23.60;99.90;;;;;;4997562;28;20079;-80
2023/06/08 09:35:56;;;;;;;6.70;4.60;;;23.80;99.90;;;;;;4998385;28;20030;-81
2023/06/08 09:38:25;;;;;;;6.60;4.75;;;24.00;99.90;;;;;;4999585;28;20117;-80
2023/06/08 09:40:51;;;;;;;7.55;4.43;;;24.10;99.90;;;;;;5000645;28;20038;-78
2023/06/08 09:43:33;;;;;;;5.70;4.93;;;24.30;99.90;;;;;;5001488;28;20027;-79
2023/06/08 09:45:59;;;;;;;5.43;4.50;;;24.50;99.90;;;;;;4998461;28;20450;-80
2023/06/08 09:48:25;;;;;;;5.53;4.35;;;24.60;99.90;;;;;;4999794;28;20064;-79
2023/06/08 09:50:58;;;;;;;6.90;5.07;;;24.70;99.90;;;;;;4999420;28;20081;-79
2023/06/08 09:53:25;;;;;;;4.63;4.10;;;24.80;99.90;;;;;;4999590;28;20031;-84
2023/06/08 09:55:53;;;;;;;5.63;4.20;;;25.00;99.90;;;;;;4999149;28;20050;-82
2023/06/08 09:58:25;;;;;;;5.55;4.10;;;25.10;99.90;;;;;;4999124;28;20435;-79
2023/06/08 10:00:54;;;;;;;5.50;4.00;;;25.50;99.90;;;;;;5000060;28;20046;-81
2023/06/08 10:03:27;;;;;;;5.85;3.80;;;25.70;99.90;;;;;;4999535;28;20414;-82
2023/06/08 10:05:54;;;;;;;8.27;4.15;;;26.00;99.90;;;;;;4999978;28;20037;-80
2023/06/08 10:08:22;;;;;;;4.57;4.05;;;26.30;99.90;;;;;;4999941;28;20109;-79
2023/06/08 10:10:48;;;;;;;7.90;5.20;;;26.60;99.90;;;;;;4998768;28;20040;-80
2023/06/08 10:13:15;;;;;;;5.05;4.45;;;26.50;99.90;;;;;;4999362;28;20030;-80
2023/06/08 10:15:42;;;;;;;4.57;3.72;;;26.20;99.90;;;;;;4997316;28;20036;-79
2023/06/08 10:18:08;;;;;;;5.60;4.20;;;26.10;99.90;;;;;;4999427;28;20442;-79
2023/06/08 10:20:37;;;;;;;4.45;3.90;;;26.20;99.90;;;;;;4998875;28;20079;-80
2023/06/08 10:23:04;;;;;;;6.63;4.30;;;26.50;99.90;;;;;;4999932;28;20034;-80
2023/06/08 10:25:30;;;;;;;4.32;3.65;;;26.60;99.90;;;;;;4997765;28;20029;-81
2023/06/08 10:28:05;;;;;;;6.32;4.05;;;26.90;99.90;;;;;;4998150;28;20088;-84
2023/06/08 10:30:41;;;;;;;;;;;27.20;99.90;;;;;;5000172;28;20065;-81
2023/06/08 10:33:12;;;;;;;6.13;3.42;;;27.50;99.90;;;;;;4997674;28;19923;-80
2023/06/08 10:35:40;;;;;;;8.65;3.90;;;27.80;99.90;;;;;;4998577;28;20038;-79
2023/06/08 10:38:24;;;;;;;6.80;3.92;;;27.90;99.90;;;;;;4998687;28;21488;-79
2023/06/08 10:40:50;;;;;;;5.47;4.10;;;27.70;99.90;;;;;;4998947;28;20046;-82
2023/06/08 10:43:17;;;;;;;7.60;4.10;;;27.30;99.90;;;;;;4999634;28;20040;-80
2023/06/08 10:45:46;;;;;;;5.75;4.00;;;27.00;99.90;;;;;;4996699;28;20065;-83
2023/06/08 10:48:19;;;;;;;5.47;4.03;;;26.80;99.90;;;;;;4999078;28;20037;-82
2023/06/08 10:50:46;;;;;;;5.97;3.58;;;26.70;99.90;;;;;;4998413;28;20073;-81
2023/06/08 10:53:15;;;;;;;5.03;3.92;;;26.70;99.90;;;;;;4997248;28;20033;-81
2023/06/08 10:55:41;;;;;;;4.72;3.80;;;26.90;99.90;;;;;;4997898;28;20192;-80
2023/06/08 10:58:18;;;;;;;4.35;3.60;;;27.00;99.90;;;;;;4997144;28;20034;-82
2023/06/08 11:00:45;;;;;;;5.28;3.53;;;27.20;99.90;;;;;;4996126;28;20610;-83
2023/06/08 11:03:13;;;;;;;5.70;3.42;;;27.50;99.90;;;;;;4999423;28;20100;-82
2023/06/08 11:05:44;;;;;;;3.90;3.40;;;27.80;99.90;;;;;;4998825;28;20033;-82
2023/06/08 11:08:11;;;;;;;5.18;3.75;;;28.10;99.90;;;;;;5000997;28;20034;-81
2023/06/08 11:10:39;;;;;;;3.70;3.30;;;28.30;99.70;;;;;;4998755;28;20034;-80
2023/06/08 11:13:10;;;;;;;6.40;3.45;;;28.10;99.10;;;;;;4999815;28;20056;-80
2023/06/08 11:15:41;;;;;;;3.75;3.17;;;28.10;98.40;;;;;;4999937;28;20050;-82
2023/06/08 11:18:08;;;;;;;4.25;3.40;;;28.30;99.10;;;;;;4999373;28;20116;-81
2023/06/08 11:20:39;;;;;;;4.53;3.03;;;28.70;99.90;;;;;;5000797;28;20037;-81
2023/06/08 11:23:12;;;;;;;5.78;3.30;;;28.90;98.90;;;;;;4999474;28;20049;-86
2023/06/08 11:25:39;;;;;;;5.60;3.47;;;29.30;97.90;;;;;;5001512;28;20044;-82
2023/06/08 11:28:07;;;;;;;4.63;2.83;;;29.40;97.80;;;;;;5001737;28;20041;-84
2023/06/08 11:30:35;;;;;;;3.60;3.08;;;29.50;96.90;;;;;;5000818;28;21443;-86
2023/06/08 11:33:06;;;;;;;3.83;3.33;;;29.60;96.20;;;;;;4999223;28;20113;-80
2023/06/08 11:35:35;;;;;;;3.72;3.33;;;29.60;93.90;;;;;;4996215;28;20120;-80
2023/06/08 11:38:02;;;;;;;4.40;3.10;;;29.30;94.60;;;;;;4998082;28;20167;-81
2023/06/08 11:40:31;;;;;;;7.93;3.55;;;29.20;94.50;;;;;;4997434;28;20038;-81
2023/06/08 11:42:58;;;;;;;3.83;3.00;;;29.10;94.80;;;;;;4997105;28;20038;-80
2023/06/08 11:45:25;;;;;;;3.45;2.80;;;29.20;94.60;;;;;;4996939;28;20026;-80
2023/06/08 11:47:54;;;;;;;3.72;3.20;;;29.30;95.30;;;;;;4996998;28;20120;-84
2023/06/08 11:50:20;;;;;;;3.60;3.10;;;29.60;93.70;;;;;;4997089;28;20023;-80
2023/06/08 11:52:46;;;;;;;4.15;3.20;;;29.90;93.00;;;;;;4998644;28;20042;-82
2023/06/08 11:55:15;;;;;;;4.07;3.28;;;29.90;90.00;;;;;;4997482;28;20030;-81
2023/06/08 11:57:53;;;;;;;4.53;3.40;;;30.10;89.10;;;;;;4998792;28;20029;-80
2023/06/08 12:00:26;;;;;;;5.93;3.13;;;30.00;89.40;;;;;;5003528;28;20038;-73
2023/06/08 12:02:53;;;;;;;3.70;2.97;;;29.70;85.10;;;;;;4995835;28;20164;-73
2023/06/08 12:05:28;;;;;;;3.50;2.97;;;29.70;87.70;;;;;;4994556;28;20041;-73
2023/06/08 12:07:57;;;;;;;7.78;3.85;;;29.80;87.60;;;;;;4996909;28;20034;-74
2023/06/08 12:10:30;;;;;;;5.80;3.28;;;29.80;88.20;;;;;;4996492;28;21401;-76
2023/06/08 12:12:56;;;;;;;4.50;3.40;;;30.30;84.80;;;;;;4997387;28;20026;-73
2023/06/08 12:15:22;;;;;;;3.75;2.90;;;30.10;82.90;;;;;;4995909;28;20994;-72
2023/06/08 12:17:47;;;;;;;4.15;3.08;;;30.30;83.00;;;;;;4995020;28;20061;-72
2023/06/08 12:20:17;;;;;;;3.55;2.75;;;30.40;80.90;;;;;;4995054;28;20035;-72
2023/06/08 12:22:43;;;;;;;4.97;3.40;;;30.00;83.20;;;;;;4995631;28;20030;-73
2023/06/08 12:25:09;;;;;;;5.93;3.10;;;29.60;84.20;;;;;;4994876;28;20042;-73
2023/06/08 12:27:39;;;;;;;5.57;3.15;;;29.50;86.60;;;;;;4995634;28;20034;-72
2023/06/08 12:30:09;;;;;;;3.60;3.20;;;29.60;83.70;;;;;;4995066;28;20042;-73
2023/06/08 12:32:35;;;;;;;3.67;2.85;;;29.60;85.10;;;;;;4994851;28;20053;-71
2023/06/08 12:35:01;;;;;;;5.45;2.90;;;30.00;78.40;;;;;;4993555;28;20088;-72
2023/06/08 12:37:29;;;;;;;4.68;3.33;;;29.90;80.50;;;;;;4994197;28;20034;-72
2023/06/08 12:39:55;;;;;;;3.53;3.15;;;29.30;83.00;;;;;;4993371;28;20132;-73
2023/06/08 12:42:21;;;;;;;3.72;3.33;;;28.60;85.20;;;;;;4993975;28;20038;-73
2023/06/08 12:44:47;;;;;;;3.83;2.90;;;28.20;85.20;;;;;;4993908;28;20041;-73
2023/06/08 12:47:13;;;;;;;4.22;3.33;;;27.70;87.10;;;;;;4992348;28;20023;-76